createdAt,value
2022-12-19T00:02:07.594Z,101395.06
2022-12-19T00:04:34.958Z,101401.34
2022-12-19T00:07:01.951Z,101388.59
2022-12-19T00:09:29.138Z,101373.63
2022-12-19T00:11:56.315Z,101397.78
2022-12-19T00:14:23.304Z,101383.28
2022-12-19T00:16:50.508Z,101415.66
2022-12-19T00:19:17.864Z,101415.06
2022-12-19T00:21:44.858Z,101406.66
2022-12-19T00:24:21.215Z,101413.81
2022-12-19T00:26:49.141Z,101431.84
2022-12-19T00:29:16.973Z,101412.75
2022-12-19T00:31:45.580Z,101431.94
2022-12-19T00:34:14.895Z,101415.69
2022-12-19T00:36:42.775Z,101448.16
2022-12-19T00:39:10.937Z,101426.81
2022-12-19T00:41:41.715Z,101443.16
2022-12-19T00:44:13.241Z,101439.41
2022-12-19T00:46:41.397Z,101440.25
2022-12-19T00:49:08.483Z,101435.31
2022-12-19T00:51:40.339Z,101439.06
2022-12-19T00:54:09.881Z,101432.72
2022-12-19T00:56:38.473Z,101426.53
2022-12-19T00:59:09.534Z,101436.09
2022-12-19T01:01:40.954Z,101434.72
2022-12-19T01:04:29.451Z,101433.69
2022-12-19T01:07:01.545Z,101436.38
2022-12-19T01:09:33.482Z,101351.66
2022-12-19T01:12:19.366Z,101434.16
2022-12-19T01:14:48.588Z,101440.44
2022-12-19T01:17:15.568Z,101429.59
2022-12-19T01:19:44.549Z,101429.56
2022-12-19T01:22:13.107Z,101424.16
2022-12-19T01:24:40.842Z,101434.22
2022-12-19T01:27:08.051Z,101435.91
2022-12-19T01:29:47.892Z,101438.66
2022-12-19T01:32:21.466Z,101442.81
2022-12-19T01:34:48.380Z,101447.22
2022-12-19T01:37:18.038Z,101456.00
2022-12-19T01:39:46.040Z,101459.41
2022-12-19T01:42:23.488Z,101430.34
2022-12-19T01:45:13.380Z,101461.69
2022-12-19T01:48:20.772Z,101459.19
2022-12-19T01:51:04.434Z,101439.75
2022-12-19T01:53:48.855Z,101462.53
2022-12-19T01:56:24.771Z,101449.78
2022-12-19T01:59:00.627Z,101448.13
2022-12-19T02:01:41.906Z,101445.59
2022-12-19T02:04:23.767Z,101447.34
2022-12-19T02:06:53.025Z,101437.53
2022-12-19T02:09:24.264Z,101445.63
2022-12-19T02:11:52.124Z,101437.66
2022-12-19T02:14:19.547Z,101464.66
2022-12-19T02:17:01.580Z,101465.25
2022-12-19T02:19:28.592Z,101480.75
2022-12-19T02:22:04.592Z,101467.97
2022-12-19T02:24:55.886Z,101477.81
2022-12-19T02:27:40.160Z,101474.91
2022-12-19T02:30:15.598Z,101469.03
2022-12-19T02:32:50.162Z,101444.00
2022-12-19T02:35:31.301Z,101421.03
2022-12-19T02:38:19.487Z,101474.34
2022-12-19T02:41:00.882Z,101386.38
2022-12-19T02:43:32.183Z,101484.19
2022-12-19T02:46:01.771Z,101450.31
2022-12-19T02:48:31.149Z,101484.16
2022-12-19T02:50:58.373Z,101489.38
2022-12-19T02:53:25.491Z,101489.38
2022-12-19T02:56:25.394Z,101501.72
2022-12-19T02:59:23.128Z,101487.94
2022-12-19T03:02:25.165Z,101488.16
2022-12-19T03:05:22.648Z,101494.19
2022-12-19T03:07:59.671Z,101486.25
2022-12-19T03:10:36.614Z,101488.78
2022-12-19T03:13:26.791Z,101500.91
2022-12-19T03:15:54.455Z,101494.00
2022-12-19T03:18:21.781Z,101491.69
2022-12-19T03:21:02.805Z,101500.91
2022-12-19T03:23:30.936Z,101508.22
2022-12-19T03:26:06.814Z,101496.50
2022-12-19T03:28:42.483Z,101504.03
2022-12-19T03:31:12.041Z,101513.88
2022-12-19T03:33:42.282Z,101509.25
2022-12-19T03:36:15.895Z,101466.00
2022-12-19T03:38:46.608Z,101506.13
2022-12-19T03:41:16.573Z,101510.31
2022-12-19T03:43:45.798Z,101510.94
2022-12-19T03:46:15.932Z,101508.00
2022-12-19T03:48:52.800Z,101505.91
2022-12-19T03:51:28.602Z,101521.81
2022-12-19T03:54:01.299Z,101529.94
2022-12-19T03:56:35.287Z,101525.97
2022-12-19T03:59:08.097Z,101523.47
2022-12-19T04:01:35.836Z,101527.22
2022-12-19T04:04:05.205Z,101515.75
2022-12-19T04:06:34.522Z,101513.44
2022-12-19T04:09:01.964Z,101505.25
2022-12-19T04:11:36.122Z,101502.78
2022-12-19T04:14:08.594Z,101506.72
2022-12-19T04:16:59.531Z,101524.09
2022-12-19T04:19:46.955Z,101530.97
2022-12-19T04:22:21.341Z,101533.91
2022-12-19T04:24:51.377Z,101535.97
2022-12-19T04:27:20.852Z,101545.22
2022-12-19T04:29:49.927Z,101551.28
2022-12-19T04:32:17.185Z,101561.72
2022-12-19T04:34:46.800Z,101555.66
2022-12-19T04:37:13.929Z,101546.22
2022-12-19T04:39:41.363Z,101559.41
2022-12-19T04:42:08.159Z,101541.44
2022-12-19T04:44:35.188Z,101555.22
2022-12-19T04:47:02.353Z,101548.13
2022-12-19T04:49:29.531Z,101555.22
2022-12-19T04:51:56.508Z,101543.94
2022-12-19T04:54:24.081Z,101574.66
2022-12-19T04:56:53.443Z,101568.59
2022-12-19T04:59:20.519Z,101566.47
2022-12-19T05:01:47.759Z,101570.66
2022-12-19T05:04:14.759Z,101566.69
2022-12-19T05:06:41.928Z,101587.16
2022-12-19T05:09:11.054Z,101586.16
2022-12-19T05:11:38.277Z,101579.66
2022-12-19T05:14:05.295Z,101577.34
2022-12-19T05:16:32.676Z,101586.34
2022-12-19T05:18:59.787Z,101594.69
2022-12-19T05:21:27.047Z,101597.38
2022-12-19T05:23:54.824Z,101599.88
2022-12-19T05:26:21.785Z,101590.88
2022-12-19T05:28:49.068Z,101599.22
2022-12-19T05:31:20.078Z,101605.28
2022-12-19T05:33:47.400Z,101610.53
2022-12-19T05:36:16.536Z,101616.56
2022-12-19T05:38:43.949Z,101614.28
2022-12-19T05:41:17.827Z,101626.84
2022-12-19T05:43:49.755Z,101622.81
2022-12-19T05:46:16.897Z,101619.88
2022-12-19T05:48:44.208Z,101627.38
2022-12-19T05:51:11.896Z,101621.56
2022-12-19T05:53:40.637Z,101630.38
2022-12-19T05:56:15.460Z,101632.88
2022-12-19T05:58:46.032Z,101627.25
2022-12-19T06:01:15.034Z,101620.28
2022-12-19T06:03:43.213Z,101635.28
2022-12-19T06:06:14.148Z,101648.22
2022-12-19T06:08:41.861Z,101645.75
2022-12-19T06:11:10.276Z,101652.44
2022-12-19T06:13:38.327Z,101648.53
2022-12-19T06:16:08.463Z,101659.41
2022-12-19T06:18:44.119Z,101648.94
2022-12-19T06:21:14.836Z,101647.81
2022-12-19T06:23:42.051Z,101642.00
2022-12-19T06:26:24.077Z,101670.88
2022-12-19T06:28:56.122Z,101671.25
2022-12-19T06:31:25.293Z,101676.66
2022-12-19T06:33:53.315Z,101669.94
2022-12-19T06:36:26.032Z,101673.44
2022-12-19T06:38:55.795Z,101675.38
2022-12-19T06:41:41.741Z,101679.31
2022-12-19T06:44:11.746Z,101687.03
2022-12-19T06:46:43.973Z,101690.97
2022-12-19T06:49:12.215Z,101691.66
2022-12-19T06:51:40.327Z,101710.91
2022-12-19T06:54:07.903Z,101709.63
2022-12-19T06:56:39.631Z,101703.75
2022-12-19T06:59:09.934Z,101714.22
2022-12-19T07:01:58.820Z,101719.34
2022-12-19T07:04:55.148Z,101684.63
2022-12-19T07:07:22.942Z,101714.16
2022-12-19T07:09:50.279Z,101704.50
2022-12-19T07:12:19.680Z,101716.97
2022-12-19T07:14:53.344Z,101720.28
2022-12-19T07:17:23.575Z,101715.25
2022-12-19T07:19:51.477Z,101724.03
2022-12-19T07:22:18.726Z,101735.09
2022-12-19T07:24:45.944Z,101735.59
2022-12-19T07:27:15.912Z,101739.78
2022-12-19T07:29:42.958Z,101718.22
2022-12-19T07:32:10.093Z,101740.91
2022-12-19T07:34:37.330Z,101746.59
2022-12-19T07:37:04.431Z,101733.75
2022-12-19T07:39:31.680Z,101746.97
2022-12-19T07:41:58.706Z,101750.69
2022-12-19T07:44:36.963Z,101759.31
2022-12-19T07:47:04.245Z,101771.00
2022-12-19T07:49:31.584Z,101760.09
2022-12-19T07:51:58.496Z,101763.88
2022-12-19T07:54:25.625Z,101778.88
2022-12-19T07:56:52.783Z,101768.22
2022-12-19T07:59:23.275Z,101774.56
2022-12-19T08:01:55.794Z,101780.38
2022-12-19T08:04:23.837Z,101783.72
2022-12-19T08:06:51.051Z,101786.63
2022-12-19T08:09:18.047Z,101777.00
2022-12-19T08:11:45.209Z,101784.97
2022-12-19T08:14:12.268Z,101787.66
2022-12-19T08:17:03.203Z,101770.97
2022-12-19T08:19:27.786Z,101797.84
2022-12-19T08:21:55.216Z,101798.34
2022-12-19T08:24:22.760Z,101796.63
2022-12-19T08:26:50.058Z,101788.50
2022-12-19T08:29:17.050Z,101783.91
2022-12-19T08:31:44.375Z,101777.38
2022-12-19T08:34:11.565Z,101785.81
2022-12-19T08:36:39.593Z,101797.22
2022-12-19T08:39:07.453Z,101798.13
2022-12-19T08:41:34.787Z,101791.41
2022-12-19T08:44:02.007Z,101801.91
2022-12-19T08:46:29.873Z,101788.09
2022-12-19T08:48:57.594Z,101794.72
2022-12-19T08:51:25.062Z,101789.53
2022-12-19T08:53:52.214Z,101795.41
2022-12-19T08:56:22.219Z,101789.78
2022-12-19T08:58:51.726Z,101797.53
2022-12-19T09:01:24.066Z,101781.44
2022-12-19T09:04:45.147Z,101787.75
2022-12-19T09:06:38.896Z,101774.41
2022-12-19T09:09:09.547Z,101780.88
2022-12-19T09:11:46.598Z,101792.38
2022-12-19T09:14:21.381Z,101788.91
2022-12-19T09:16:52.881Z,101787.06
2022-12-19T09:19:20.591Z,101777.47
2022-12-19T09:21:50.079Z,101773.06
2022-12-19T09:24:17.309Z,101773.03
2022-12-19T09:26:45.970Z,101787.31
2022-12-19T09:29:20.840Z,101771.91
2022-12-19T09:31:55.708Z,101776.94
2022-12-19T09:34:38.055Z,101774.00
2022-12-19T09:37:16.087Z,101766.88
2022-12-19T09:39:50.487Z,101772.53
2022-12-19T09:42:56.467Z,101764.56
2022-12-19T09:45:59.893Z,101761.03
2022-12-19T09:48:27.221Z,101759.19
2022-12-19T09:50:54.183Z,101758.56
2022-12-19T09:53:55.106Z,101751.63
2022-12-19T09:56:26.700Z,101744.16
2022-12-19T09:59:03.951Z,101739.53
2022-12-19T10:01:37.688Z,101735.56
2022-12-19T10:04:13.797Z,101730.16
2022-12-19T10:07:09.307Z,101720.53
2022-12-19T10:12:18.128Z,101717.81
2022-12-19T10:12:51.155Z,101731.00
2022-12-19T10:16:09.239Z,101725.97
2022-12-19T10:19:18.472Z,101714.69
2022-12-19T10:22:20.786Z,101707.16
2022-12-19T10:25:09.182Z,101704.44
2022-12-19T10:28:00.548Z,101709.69
2022-12-19T10:30:32.329Z,101694.19
2022-12-19T10:33:20.538Z,101709.25
2022-12-19T10:36:01.690Z,101694.81
2022-12-19T10:38:49.583Z,101686.66
2022-12-19T10:41:29.329Z,101700.03
2022-12-19T10:44:07.558Z,101689.16
2022-12-19T10:46:39.870Z,101693.97
2022-12-19T10:49:17.890Z,101684.75
2022-12-19T10:52:06.054Z,101678.28
2022-12-19T10:54:46.155Z,101683.72
2022-12-19T10:57:22.381Z,101685.59
2022-12-19T11:00:16.889Z,101683.28
2022-12-19T11:02:51.912Z,101678.69
2022-12-19T11:05:42.583Z,101675.75
2022-12-19T11:08:12.103Z,101688.94
2022-12-19T11:11:57.963Z,101696.63
2022-12-19T11:18:22.314Z,101684.03
2022-12-19T11:24:50.207Z,101674.41
2022-12-19T11:29:33.972Z,101673.56
2022-12-19T11:29:36.944Z,101666.44
2022-12-19T11:29:54.484Z,101666.69
2022-12-19T11:30:35.212Z,101676.94
2022-12-19T11:34:18.252Z,101663.38
2022-12-19T11:37:14.278Z,101682.81
2022-12-19T11:39:47.003Z,101677.53
2022-12-19T11:42:26.465Z,101681.31
2022-12-19T11:45:15.697Z,101664.53
2022-12-19T11:47:47.842Z,101674.75
2022-12-19T11:50:31.992Z,101661.78
2022-12-19T11:53:16.809Z,101651.28
2022-12-19T11:55:51.853Z,101679.34
2022-12-19T11:58:19.123Z,101661.59
2022-12-19T12:00:58.291Z,101670.78
2022-12-19T12:03:34.755Z,101667.66
2022-12-19T12:06:11.904Z,101665.69
2022-12-19T12:14:50.874Z,101663.00
2022-12-19T12:17:11.776Z,101667.44
2022-12-19T12:26:55.057Z,101668.50
2022-12-19T12:31:21.496Z,101679.78
2022-12-19T12:31:43.659Z,101667.00
2022-12-19T12:32:02.766Z,101659.81
2022-12-19T12:32:03.524Z,101666.94
2022-12-19T12:35:56.946Z,101659.91
2022-12-19T12:41:48.070Z,101657.50
2022-12-19T12:44:15.884Z,101660.78
2022-12-19T12:46:51.667Z,101673.00
2022-12-19T12:49:45.380Z,101671.13
2022-12-19T12:52:41.645Z,101660.97
2022-12-19T12:55:40.765Z,101670.84
2022-12-19T12:58:47.592Z,101671.72
2022-12-19T13:01:20.377Z,101675.72
2022-12-19T13:04:11.241Z,101679.00
2022-12-19T13:06:41.468Z,101665.28
2022-12-19T13:09:08.759Z,101671.78
2022-12-19T13:12:09.568Z,101672.72
2022-12-19T13:14:39.810Z,101669.19
2022-12-19T13:17:08.956Z,101674.56
2022-12-19T13:20:01.042Z,101580.13
2022-12-19T13:22:32.014Z,101682.22
2022-12-19T13:25:00.556Z,101670.50
2022-12-19T13:27:38.257Z,101683.53
2022-12-19T13:30:08.732Z,101683.16
2022-12-19T13:32:41.829Z,101676.50
2022-12-19T13:36:08.595Z,101686.56
2022-12-19T13:39:57.949Z,101683.88
2022-12-19T13:41:45.067Z,101675.75
2022-12-19T13:44:13.586Z,101667.38
2022-12-19T13:46:48.991Z,101673.66
2022-12-19T13:49:19.137Z,101688.75
2022-12-19T13:51:57.157Z,101682.25
2022-12-19T13:54:33.089Z,101676.59
2022-12-19T13:57:08.145Z,101672.41
2022-12-19T13:59:40.048Z,101666.56
2022-12-19T14:02:18.112Z,101678.69
2022-12-19T14:04:46.087Z,101654.84
2022-12-19T14:07:41.008Z,101673.03
2022-12-19T14:11:28.612Z,101672.81
2022-12-19T14:13:54.136Z,101677.22
2022-12-19T14:16:18.642Z,101671.56
2022-12-19T14:18:50.759Z,101671.16
2022-12-19T14:22:05.678Z,101675.75
2022-12-19T14:24:27.897Z,101657.97
2022-12-19T14:28:23.213Z,101668.63
2022-12-19T14:30:27.635Z,101615.00
2022-12-19T14:33:44.908Z,101667.78
2022-12-19T14:36:12.363Z,101671.09
2022-12-19T14:39:24.522Z,101682.16
2022-12-19T14:41:46.379Z,101681.31
2022-12-19T14:50:16.237Z,101681.69
2022-12-19T14:54:04.573Z,101673.28
2022-12-19T14:54:07.606Z,101678.72
2022-12-19T14:54:29.930Z,101665.75
2022-12-19T14:56:08.488Z,101679.34
2022-12-19T14:58:54.600Z,101687.25
2022-12-19T15:01:25.181Z,101699.56
2022-12-19T15:04:51.550Z,101696.38
2022-12-19T15:07:23.897Z,101692.56
2022-12-19T15:11:03.852Z,101701.56
2022-12-19T15:14:38.039Z,101705.66
2022-12-19T15:16:03.528Z,101695.38
2022-12-19T15:18:33.403Z,101698.72
2022-12-19T15:21:06.684Z,101694.31
2022-12-19T15:23:34.309Z,101699.75
2022-12-19T15:26:06.089Z,101695.31
2022-12-19T15:28:39.220Z,101701.59
2022-12-19T15:31:37.315Z,101691.91
2022-12-19T15:36:57.920Z,101690.69
2022-12-19T15:39:29.583Z,101702.06
2022-12-19T15:41:58.313Z,101691.22
2022-12-19T15:44:37.154Z,101693.66
2022-12-19T15:47:08.367Z,101695.03
2022-12-19T15:49:35.519Z,101711.31
2022-12-19T15:52:03.072Z,101696.22
2022-12-19T15:57:31.498Z,101678.47
2022-12-19T16:00:02.491Z,101718.50
2022-12-19T16:05:22.377Z,101724.31
2022-12-19T16:07:49.870Z,101709.13
2022-12-19T16:10:17.516Z,101716.88
2022-12-19T16:12:55.538Z,101722.28
2022-12-19T16:15:29.676Z,101722.53
2022-12-19T16:17:58.225Z,101734.56
2022-12-19T16:20:28.522Z,101720.09
2022-12-19T16:22:55.759Z,101724.16
2022-12-19T16:25:27.315Z,101706.75
2022-12-19T16:27:57.542Z,101730.28
2022-12-19T16:30:29.976Z,101724.34
2022-12-19T16:33:00.823Z,101728.50
2022-12-19T16:38:18.566Z,101729.75
2022-12-19T16:40:53.005Z,101733.03
2022-12-19T16:43:32.254Z,101742.34
2022-12-19T16:46:01.375Z,101741.25
2022-12-19T16:48:30.331Z,101728.44
2022-12-19T16:51:09.157Z,101739.00
2022-12-19T16:53:37.366Z,101715.03
2022-12-19T16:56:05.846Z,101754.25
2022-12-19T16:58:36.890Z,101734.34
2022-12-19T17:01:10.763Z,101747.81
2022-12-19T17:03:53.905Z,101745.66
2022-12-19T17:06:24.462Z,101726.25
2022-12-19T17:08:51.557Z,101750.50
2022-12-19T17:11:29.063Z,101749.22
2022-12-19T17:14:02.459Z,101740.94
2022-12-19T17:16:31.384Z,101733.09
2022-12-19T17:19:11.083Z,101737.47
2022-12-19T17:21:39.621Z,101739.88
2022-12-19T17:24:13.105Z,101743.91
2022-12-19T17:26:40.382Z,101737.38
2022-12-19T17:29:07.349Z,101754.19
2022-12-19T17:31:38.358Z,101751.28
2022-12-19T17:34:08.450Z,101748.50
2022-12-19T17:36:37.842Z,101753.53
2022-12-19T17:39:24.023Z,101750.25
2022-12-19T17:41:52.611Z,101750.06
2022-12-19T17:44:19.805Z,101745.13
2022-12-19T17:46:53.852Z,101755.47
2022-12-19T17:49:40.260Z,101755.28
2022-12-19T17:52:14.888Z,101685.38
2022-12-19T17:54:42.418Z,101762.09
2022-12-19T17:57:18.070Z,101741.94
2022-12-19T17:59:46.765Z,101744.47
2022-12-19T18:02:24.137Z,101753.97
2022-12-19T18:04:52.518Z,101747.72
2022-12-19T18:07:21.614Z,101752.94
2022-12-19T18:09:51.333Z,101751.06
2022-12-19T18:12:19.931Z,101728.41
2022-12-19T18:14:47.118Z,101761.38
2022-12-19T18:17:25.882Z,101759.41
2022-12-19T18:19:57.519Z,101752.38
2022-12-19T18:22:25.136Z,101760.13
2022-12-19T18:24:52.217Z,101761.28
2022-12-19T18:27:19.703Z,101766.75
2022-12-19T18:29:46.923Z,101754.63
2022-12-19T18:32:19.258Z,101760.13
2022-12-19T18:34:46.774Z,101758.09
2022-12-19T18:37:16.155Z,101749.03
2022-12-19T18:39:43.175Z,101761.97
2022-12-19T18:42:19.058Z,101762.69
2022-12-19T18:44:46.144Z,101749.50
2022-12-19T18:47:23.751Z,101776.63
2022-12-19T18:49:52.075Z,101750.91
2022-12-19T18:52:19.298Z,101732.94
2022-12-19T18:54:46.262Z,101748.31
2022-12-19T18:57:14.750Z,101768.81
2022-12-19T18:59:41.800Z,101772.09
2022-12-19T19:02:27.848Z,101758.28
2022-12-19T19:04:55.939Z,101762.84
2022-12-19T19:07:23.028Z,101774.84
2022-12-19T19:09:50.266Z,101761.38
2022-12-19T19:12:36.121Z,101745.59
2022-12-19T19:15:03.201Z,101771.03
2022-12-19T19:17:32.147Z,101768.63
2022-12-19T19:19:59.356Z,101771.13
2022-12-19T19:22:26.556Z,101760.00
2022-12-19T19:24:53.800Z,101753.53
2022-12-19T19:27:20.821Z,101750.88
2022-12-19T19:29:47.828Z,101762.47
2022-12-19T19:32:14.927Z,101749.50
2022-12-19T19:34:42.117Z,101751.94
2022-12-19T19:37:14.055Z,101742.94
2022-12-19T19:39:42.133Z,101758.47
2022-12-19T19:42:09.751Z,101765.56
2022-12-19T19:44:36.715Z,101762.50
2022-12-19T19:47:03.934Z,101776.16
2022-12-19T19:49:30.999Z,101773.31
2022-12-19T19:52:02.570Z,101779.34
2022-12-19T19:54:31.100Z,101759.13
2022-12-19T19:56:58.369Z,101768.91
2022-12-19T19:59:25.483Z,101776.66
2022-12-19T20:01:54.813Z,101769.28
2022-12-19T20:04:21.878Z,101791.03
2022-12-19T20:06:49.027Z,101781.13
2022-12-19T20:09:15.951Z,101761.72
2022-12-19T20:11:46.439Z,101755.97
2022-12-19T20:14:14.705Z,101766.22
2022-12-19T20:16:45.692Z,101726.69
2022-12-19T20:19:12.779Z,101778.34
2022-12-19T20:21:39.794Z,101759.66
2022-12-19T20:24:07.198Z,101756.97
2022-12-19T20:26:34.877Z,101749.72
2022-12-19T20:29:24.609Z,101763.84
2022-12-19T20:31:51.608Z,101754.16
2022-12-19T20:34:20.158Z,101753.97
2022-12-19T20:36:47.222Z,101749.91
2022-12-19T20:39:15.015Z,101763.16
2022-12-19T20:41:41.877Z,101753.94
2022-12-19T20:44:08.942Z,101754.16
2022-12-19T20:46:39.272Z,101762.44
2022-12-19T20:49:06.195Z,101758.56
2022-12-19T20:51:33.483Z,101768.03
2022-12-19T20:54:09.568Z,101762.47
2022-12-19T20:56:42.179Z,101767.88
2022-12-19T20:59:10.581Z,101745.84
2022-12-19T21:01:38.386Z,101756.44
2022-12-19T21:04:06.119Z,101771.28
2022-12-19T21:06:33.239Z,101780.22
2022-12-19T21:09:00.475Z,101771.13
2022-12-19T21:11:27.479Z,101770.25
2022-12-19T21:13:54.855Z,101768.53
2022-12-19T21:16:34.871Z,101767.19
2022-12-19T21:19:02.555Z,101750.31
2022-12-19T21:21:33.140Z,101733.47
2022-12-19T21:24:01.400Z,101752.03
2022-12-19T21:26:28.332Z,101742.47
2022-12-19T21:28:58.130Z,101726.00
2022-12-19T21:31:28.654Z,101721.63
2022-12-19T21:33:59.570Z,101741.78
2022-12-19T21:36:27.888Z,101732.66
2022-12-19T21:38:57.526Z,101729.94
2022-12-19T21:41:25.317Z,101732.63
2022-12-19T21:43:53.833Z,101739.69
2022-12-19T21:46:23.884Z,101725.69
2022-12-19T21:48:54.014Z,101729.00
2022-12-19T21:51:23.189Z,101722.88
2022-12-19T21:53:55.071Z,101722.41
2022-12-19T21:56:34.485Z,101716.28
2022-12-19T21:59:04.527Z,101725.38
2022-12-19T22:01:32.461Z,101717.31
2022-12-19T22:04:02.629Z,101728.06
2022-12-19T22:06:32.703Z,101735.53
2022-12-19T22:09:00.634Z,101727.78
2022-12-19T22:11:29.401Z,101723.25
2022-12-19T22:13:58.350Z,101745.81
2022-12-19T22:16:25.393Z,101731.16
2022-12-19T22:18:53.086Z,101741.72
2022-12-19T22:21:20.556Z,101737.25
2022-12-19T22:23:47.676Z,101739.00
2022-12-19T22:26:24.005Z,101726.69
2022-12-19T22:28:53.345Z,101735.69
2022-12-19T22:31:26.495Z,101729.22
2022-12-19T22:33:57.291Z,101739.38
2022-12-19T22:36:28.644Z,101723.53
2022-12-19T22:38:57.078Z,101727.91
2022-12-19T22:41:24.587Z,101730.53
2022-12-19T22:43:53.799Z,101723.81
2022-12-19T22:46:26.867Z,101722.19
2022-12-19T22:48:57.474Z,101716.56
2022-12-19T22:51:25.606Z,101713.91
2022-12-19T22:53:53.152Z,101697.28
2022-12-19T22:56:23.215Z,101707.31
2022-12-19T22:58:52.921Z,101708.94
2022-12-19T23:01:26.470Z,101704.50
2022-12-19T23:03:55.939Z,101691.84
2022-12-19T23:06:25.542Z,101689.06
2022-12-19T23:08:53.394Z,101691.25
2022-12-19T23:11:23.786Z,101687.03
2022-12-19T23:13:51.400Z,101687.31
2022-12-19T23:16:19.324Z,101687.13
2022-12-19T23:18:46.511Z,101678.09
2022-12-19T23:21:20.030Z,101587.31
2022-12-19T23:23:49.636Z,101670.34
2022-12-19T23:26:22.822Z,101690.22
2022-12-19T23:28:52.789Z,101693.16
2022-12-19T23:31:20.248Z,101688.34
2022-12-19T23:33:47.253Z,101693.16
2022-12-19T23:36:14.497Z,101682.56
2022-12-19T23:38:43.385Z,101687.69
2022-12-19T23:41:13.207Z,101677.66
2022-12-19T23:43:40.828Z,101677.25
2022-12-19T23:46:10.877Z,101671.59
2022-12-19T23:48:37.814Z,101668.91
2022-12-19T23:51:08.243Z,101680.84
2022-12-19T23:53:35.558Z,101681.63
2022-12-19T23:56:29.465Z,101675.94
2022-12-19T23:58:57.413Z,101645.63
